Aeroporto :
LOGIN :

Iscrizione | Disclaimer

   EN    FR    IT 

 










Sommario :    VFR   VFR Marginale   IFR   IFR Intensivo   IFR Molto Intensivo
Visibilità : 
Base nubi : 
>= 8 km
>= 3000ft
5 / 8 km
1000 / 3000 ft
1500m / 5 km
500 / 1000 ft
800 / 1500m
200 / 500 ft
< 800m
< 200 ft
Simboli :   Temporali  Nebbia  Neve Forte  Precipitazioni Forti  Vento > 20 kt
SIGMETs :   Varie  Temporali  Ghiacco  Turbolenza  Onda orograficha  Ceneri Vulcaniche







- Altitudine del aeroporto : 2595 ft
- Codice IATA : SLM


LESA - Salamanca Matacan

ULTIMO METAR :
  • 181800Z 08006KT CAVOK 08/01 Q1023

METARs OBSOLETI :
  • 181730Z 07012KT 040V100 9999 FEW048 09/01 Q1023
  • 181700Z 06012KT 030V090 9999 FEW042 10/02 Q1023
  • 181630Z 05014KT 020V080 9999 FEW035 10/01 Q1023
  • 181600Z 05013KT 020V080 9999 FEW030 11/01 Q1023
  • 181530Z 07013KT 030V100 9999 FEW020 10/01 Q1023

TAF TAF LESA
Valido dal 18 a 18 ore il 19 a 18 ore UTC


181700Z 1818/1918 04012KT CAVOK TX12/1915Z TNM02/1907Z
PROB30
TEMPO 1818/1820 04015G25KT SCT020
BECMG 1821/1822 04006KT
TEMPO 1911/1918 01012KT
Nessun NOTAM noto per questo aeroporto.



MetMap, La meteo Aeronautica in un colpo d'occhio ! - Copyright ORBIFLY Dicembre 2007 - Disclaimer

ORBIFLY MET'MAP TEAM :

Programmazione e sviluppo : Alexandra Zaïnal
Concezione e sviluppo : Baudouin d'Aumeries
Co-Programmazione e sviluppo : Marc-Olivier Méhu
Supporto tecnico e logistico : Manuel Goepfert
Aiuto per la traduzione : Arnaldo La Scala

Contatto : metmap@orbifly.com




FONTI E CREDITI :

   NOAA